This is the latest recevied weather packets stored in our database for station/object K3MV-13. If no packets are shown the sender has not sent any weather packets the latest 1 day(s).
| Time | Temp. | Humidity | Pressure | Rain* | Wind** | Luminosity | Snow |
|---|---|---|---|---|---|---|---|
| 1778001345 | 22.22° C | 43% | 1010 hPa | 0 mm | 2.68 m/s, 240° | 796 W/m² | - |
| 1778001042 | 22.78° C | 43% | 1010.1 hPa | 0 mm | 2.68 m/s, 196° | 510 W/m² | - |
| 1778000739 | 23.33° C | 46% | 1010.4 hPa | 0 mm | 0.45 m/s, 223° | 809 W/m² | - |
| 1778000435 | 22.78° C | 44% | 1010.4 hPa | 0 mm | 0.89 m/s, 178° | 793 W/m² | - |
| 1778000131 | 22.78° C | 44% | 1010.2 hPa | 0 mm | 1.34 m/s, 226° | 776 W/m² | - |
| 1777999826 | 22.78° C | 43% | 1010.5 hPa | 0 mm | 2.68 m/s, 222° | 799 W/m² | - |
| 1777999523 | 22.22° C | 44% | 1010.4 hPa | 0 mm | 1.34 m/s, 237° | 777 W/m² | - |
| 1777999221 | 22.78° C | 43% | 1010.5 hPa | 0 mm | 3.58 m/s, 166° | 466 W/m² | - |
| 1777998919 | 22.78° C | 43% | 1010.6 hPa | 0 mm | 1.79 m/s, 222° | 809 W/m² | - |
| 1777998615 | 22.22° C | 42% | 1010.7 hPa | 0 mm | 2.68 m/s, 264° | 806 W/m² | - |
| 1777998308 | 22.22° C | 40% | 1010.6 hPa | 0 mm | 1.79 m/s, 253° | 823 W/m² | - |
| 1777998006 | 21.67° C | 42% | 1010.6 hPa | 0 mm | 2.68 m/s, 218° | 788 W/m² | - |
| 1777997702 | 21.67° C | 43% | 1010.6 hPa | 0 mm | 3.13 m/s, 197° | 826 W/m² | - |
| 1777997399 | 21.67° C | 45% | 1010.9 hPa | 0 mm | 2.68 m/s, 224° | 801 W/m² | - |
| 1777997098 | 21.67° C | 43% | 1010.8 hPa | 0 mm | 3.58 m/s, 226° | 773 W/m² | - |
| 1777996794 | 21.67° C | 44% | 1010.7 hPa | 0 mm | 4.47 m/s, 198° | 797 W/m² | - |
| 1777996490 | 21.67° C | 44% | 1011 hPa | 0 mm | 4.02 m/s, 220° | 788 W/m² | - |
| 1777996187 | 21.11° C | 48% | 1011 hPa | 0 mm | 1.34 m/s, 138° | 801 W/m² | - |
| 1777995883 | 20.56° C | 46% | 1011.3 hPa | 0 mm | 1.34 m/s, 205° | 834 W/m² | - |
| 1777995579 | 21.11° C | 47% | 1011.4 hPa | 0 mm | 1.34 m/s, 221° | 271 W/m² | - |
| 1777995277 | 21.11° C | 47% | 1011.5 hPa | 0 mm | 1.79 m/s, 309° | 802 W/m² | - |
| 1777994974 | 20.56° C | 48% | 1011.4 hPa | 0 mm | 1.34 m/s, 154° | 708 W/m² | - |
| 1777994672 | 20.56° C | 49% | 1011.5 hPa | 0 mm | 0.89 m/s, 267° | 626 W/m² | - |
| 1777994371 | 20.56° C | 49% | 1011.8 hPa | 0 mm | 3.13 m/s, 182° | 368 W/m² | - |
| 1777994067 | 20° C | 50% | 1011.6 hPa | 0 mm | 1.79 m/s, 182° | 758 W/m² | - |
* Rain latest hour (hover to see other rain measurements)
** Current wind speed in m/s (hover to see current wind gust speed)